createdAt,value
2018-04-15T00:00:31.903Z,20.86
2018-04-15T00:02:59.873Z,20.84
2018-04-15T00:05:27.988Z,20.82
2018-04-15T00:07:56.079Z,20.81
2018-04-15T00:10:24.120Z,20.78
2018-04-15T00:12:51.731Z,20.76
2018-04-15T00:15:19.622Z,20.71
2018-04-15T00:17:47.230Z,20.63
2018-04-15T00:20:14.791Z,20.60
2018-04-15T00:22:42.355Z,20.61
2018-04-15T00:25:09.979Z,20.61
2018-04-15T00:27:37.662Z,20.60
2018-04-15T00:30:05.525Z,20.59
2018-04-15T00:32:33.130Z,20.57
2018-04-15T00:35:00.868Z,20.55
2018-04-15T00:37:28.427Z,20.56
2018-04-15T00:39:56.388Z,20.53
2018-04-15T00:42:23.979Z,20.52
2018-04-15T00:44:51.598Z,20.33
2018-04-15T00:47:19.164Z,20.24
2018-04-15T00:49:47.070Z,20.22
2018-04-15T00:52:14.691Z,20.23
2018-04-15T00:54:42.255Z,20.26
2018-04-15T00:57:09.818Z,20.30
2018-04-15T00:59:37.414Z,20.21
2018-04-15T01:02:05.656Z,20.22
2018-04-15T01:04:33.724Z,20.21
2018-04-15T01:07:01.292Z,20.12
2018-04-15T01:09:28.894Z,20.15
2018-04-15T01:11:57.140Z,20.12
2018-04-15T01:14:24.759Z,20.13
2018-04-15T01:16:52.828Z,20.17
2018-04-15T01:19:20.388Z,20.15
2018-04-15T01:21:47.998Z,20.03
2018-04-15T01:24:15.601Z,19.75
2018-04-15T01:26:43.466Z,19.15
2018-04-15T01:29:11.078Z,19.15
2018-04-15T01:31:39.973Z,19.37
2018-04-15T01:34:07.755Z,19.38
2018-04-15T01:36:35.729Z,19.45
2018-04-15T01:39:03.573Z,19.51
2018-04-15T01:41:31.134Z,19.62
2018-04-15T01:43:59.128Z,19.59
2018-04-15T01:46:26.693Z,19.26
2018-04-15T01:48:54.658Z,19.34
2018-04-15T01:51:22.264Z,19.31
2018-04-15T01:53:49.884Z,18.90
2018-04-15T01:56:17.439Z,18.82
2018-04-15T01:58:44.995Z,19.02
2018-04-15T02:01:12.611Z,19.21
2018-04-15T02:03:40.167Z,18.88
2018-04-15T02:06:08.319Z,18.88
2018-04-15T02:08:35.879Z,18.55
2018-04-15T02:11:03.827Z,18.66
2018-04-15T02:13:31.919Z,18.71
2018-04-15T02:15:59.984Z,18.93
2018-04-15T02:18:28.051Z,19.10
2018-04-15T02:20:55.662Z,19.13
2018-04-15T02:23:24.163Z,19.25
2018-04-15T02:25:52.319Z,19.32
2018-04-15T02:28:19.874Z,19.30
2018-04-15T02:30:48.425Z,19.21
2018-04-15T02:33:16.046Z,19.03
2018-04-15T02:35:43.937Z,19.02
2018-04-15T02:38:11.550Z,19.07
2018-04-15T02:40:39.267Z,18.90
2018-04-15T02:43:06.874Z,18.69
2018-04-15T02:45:34.442Z,18.22
2018-04-15T02:48:02.008Z,17.46
2018-04-15T02:50:29.806Z,17.29
2018-04-15T02:52:57.913Z,17.28
2018-04-15T02:55:25.467Z,17.29
2018-04-15T02:57:53.085Z,16.55
2018-04-15T03:00:21.607Z,16.73
2018-04-15T03:02:50.006Z,17.08
2018-04-15T03:05:17.627Z,17.45
2018-04-15T03:07:45.468Z,17.73
2018-04-15T03:10:13.603Z,17.91
2018-04-15T03:12:41.724Z,18.11
2018-04-15T03:15:09.789Z,18.16
2018-04-15T03:17:37.881Z,17.92
2018-04-15T03:20:05.483Z,17.85
2018-04-15T03:22:33.086Z,17.94
2018-04-15T03:25:01.153Z,17.74
2018-04-15T03:27:29.220Z,17.36
2018-04-15T03:29:56.822Z,17.28
2018-04-15T03:32:24.379Z,17.49
2018-04-15T03:34:52.020Z,17.76
2018-04-15T03:37:20.184Z,18.00
2018-04-15T03:39:47.800Z,18.20
2018-04-15T03:42:15.397Z,18.28
2018-04-15T03:44:43.490Z,18.19
2018-04-15T03:47:11.672Z,18.27
2018-04-15T03:49:39.827Z,18.24
2018-04-15T03:52:07.387Z,18.39
2018-04-15T03:54:35.007Z,18.37
2018-04-15T03:57:02.563Z,18.28
2018-04-15T03:59:30.119Z,18.25
2018-04-15T04:01:57.719Z,17.96
2018-04-15T04:04:25.338Z,17.93
2018-04-15T04:06:52.902Z,17.60
2018-04-15T04:09:20.520Z,17.36
2018-04-15T04:11:48.142Z,17.38
2018-04-15T04:14:15.708Z,17.42
2018-04-15T04:16:44.811Z,17.01
2018-04-15T04:19:24.698Z,17.05
2018-04-15T04:22:04.290Z,17.29
2018-04-15T04:24:44.066Z,17.36
2018-04-15T04:27:12.597Z,17.31
2018-04-15T04:29:40.449Z,17.41
2018-04-15T04:32:08.707Z,17.48
2018-04-15T04:34:36.528Z,17.47
2018-04-15T04:37:04.611Z,17.19
2018-04-15T04:39:32.175Z,17.23
2018-04-15T04:42:00.090Z,16.98
2018-04-15T04:44:27.647Z,16.78
2018-04-15T04:46:55.215Z,16.81
2018-04-15T04:49:22.775Z,16.84
2018-04-15T04:51:50.402Z,16.99
2018-04-15T04:54:17.979Z,17.25
2018-04-15T04:56:45.736Z,17.30
2018-04-15T04:59:13.983Z,17.21
2018-04-15T05:01:42.427Z,16.94
2018-04-15T05:04:10.383Z,16.73
2018-04-15T05:06:37.986Z,16.75
2018-04-15T05:09:07.006Z,17.02
2018-04-15T05:11:34.610Z,16.85
2018-04-15T05:14:02.842Z,16.82
2018-04-15T05:16:30.397Z,17.03
2018-04-15T05:18:58.021Z,17.24
2018-04-15T05:21:26.049Z,17.09
2018-04-15T05:23:54.203Z,16.80
2018-04-15T05:26:22.151Z,16.50
2018-04-15T05:28:49.758Z,16.78
2018-04-15T05:31:17.358Z,17.10
2018-04-15T05:33:45.874Z,17.31
2018-04-15T05:36:13.498Z,17.26
2018-04-15T05:38:41.054Z,17.07
2018-04-15T05:41:08.667Z,17.21
2018-04-15T05:43:36.268Z,17.18
2018-04-15T05:46:05.121Z,17.10
2018-04-15T05:48:32.725Z,17.19
2018-04-15T05:51:00.531Z,17.23
2018-04-15T05:53:28.349Z,16.93
2018-04-15T05:55:56.416Z,16.68
2018-04-15T05:58:24.685Z,16.77
2018-04-15T06:00:52.252Z,16.91
2018-04-15T06:03:19.813Z,16.93
2018-04-15T06:05:47.419Z,17.06
2018-04-15T06:08:15.834Z,17.24
2018-04-15T06:10:44.037Z,17.22
2018-04-15T06:13:12.102Z,17.14
2018-04-15T06:15:39.679Z,17.24
2018-04-15T06:18:09.278Z,17.34
2018-04-15T06:20:36.852Z,17.18
2018-04-15T06:23:04.517Z,17.17
2018-04-15T06:25:33.031Z,16.51
2018-04-15T06:28:00.934Z,16.36
2018-04-15T06:30:28.550Z,16.57
2018-04-15T06:32:57.426Z,16.57
2018-04-15T06:35:25.527Z,16.84
2018-04-15T06:37:53.098Z,16.96
2018-04-15T06:40:21.039Z,17.06
2018-04-15T06:42:48.675Z,17.10
2018-04-15T06:45:16.346Z,16.68
2018-04-15T06:47:44.008Z,16.58
2018-04-15T06:50:12.047Z,16.82
2018-04-15T06:52:40.599Z,16.93
2018-04-15T06:55:08.158Z,17.17
2018-04-15T06:57:37.143Z,17.19
2018-04-15T07:00:05.099Z,16.92
2018-04-15T07:02:32.655Z,16.74
2018-04-15T07:05:00.255Z,16.83
2018-04-15T07:07:27.848Z,16.90
2018-04-15T07:09:56.167Z,17.09
2018-04-15T07:12:23.950Z,17.14
2018-04-15T07:14:51.862Z,17.31
2018-04-15T07:17:19.698Z,17.21
2018-04-15T07:19:47.313Z,17.25
2018-04-15T07:22:14.870Z,17.30
2018-04-15T07:24:42.778Z,17.30
2018-04-15T07:27:10.876Z,17.13
2018-04-15T07:29:38.935Z,16.97
2018-04-15T07:32:06.491Z,17.06
2018-04-15T07:34:34.475Z,17.24
2018-04-15T07:37:02.676Z,17.22
2018-04-15T07:39:30.286Z,17.24
2018-04-15T07:41:57.958Z,17.05
2018-04-15T07:44:25.506Z,16.31
2018-04-15T07:46:55.200Z,16.03
2018-04-15T07:49:23.023Z,16.25
2018-04-15T07:51:51.662Z,16.38
2018-04-15T07:54:19.468Z,16.68
2018-04-15T07:56:47.355Z,16.81
2018-04-15T07:59:14.923Z,16.79
2018-04-15T08:01:42.535Z,16.92
2018-04-15T08:04:10.323Z,17.20
2018-04-15T08:06:38.258Z,17.45
2018-04-15T08:09:06.939Z,17.63
2018-04-15T08:11:34.898Z,17.75
2018-04-15T08:14:03.295Z,17.73
2018-04-15T08:16:30.910Z,17.68
2018-04-15T08:18:59.131Z,17.79
2018-04-15T08:21:28.119Z,17.90
2018-04-15T08:23:56.623Z,17.91
2018-04-15T08:26:24.684Z,17.52
2018-04-15T08:28:53.872Z,16.94
2018-04-15T08:31:21.874Z,16.64
2018-04-15T08:33:50.394Z,16.61
2018-04-15T08:36:18.015Z,16.95
2018-04-15T08:38:46.157Z,17.18
2018-04-15T08:41:13.713Z,17.43
2018-04-15T08:43:41.328Z,17.61
2018-04-15T08:46:08.899Z,17.56
2018-04-15T08:48:36.512Z,17.63
2018-04-15T08:51:04.071Z,17.83
2018-04-15T08:53:32.476Z,17.81
2018-04-15T08:56:00.627Z,18.02
2018-04-15T08:58:28.461Z,18.20
2018-04-15T09:00:56.079Z,18.41
2018-04-15T09:03:25.515Z,18.61
2018-04-15T09:05:53.126Z,18.74
2018-04-15T09:08:20.681Z,18.81
2018-04-15T09:10:49.363Z,18.79
2018-04-15T09:13:17.177Z,18.85
2018-04-15T09:15:44.815Z,18.85
2018-04-15T09:18:12.475Z,18.83
2018-04-15T09:20:40.177Z,18.63
2018-04-15T09:23:07.795Z,18.57
2018-04-15T09:25:36.570Z,18.42
2018-04-15T09:28:04.548Z,18.26
2018-04-15T09:30:32.191Z,18.36
2018-04-15T09:32:59.811Z,18.56
2018-04-15T09:35:27.371Z,18.64
2018-04-15T09:37:54.996Z,18.66
2018-04-15T09:40:23.726Z,18.63
2018-04-15T09:42:51.567Z,18.59
2018-04-15T09:45:19.616Z,18.47
2018-04-15T09:47:48.696Z,18.46
2018-04-15T09:50:16.279Z,18.53
2018-04-15T09:52:44.230Z,18.61
2018-04-15T09:55:12.169Z,18.68
2018-04-15T09:57:40.014Z,18.74
2018-04-15T10:00:08.554Z,18.85
2018-04-15T10:02:36.444Z,18.95
2018-04-15T10:05:04.584Z,18.76
2018-04-15T10:07:32.701Z,18.79
2018-04-15T10:10:00.579Z,18.89
2018-04-15T10:12:28.209Z,18.83
2018-04-15T10:14:59.818Z,18.89
2018-04-15T10:17:27.763Z,18.89
2018-04-15T10:19:56.267Z,19.00
2018-04-15T10:22:25.362Z,19.12
2018-04-15T10:24:53.764Z,19.18
2018-04-15T10:27:22.926Z,18.95
2018-04-15T10:29:51.623Z,18.92
2018-04-15T10:32:20.612Z,18.97
2018-04-15T10:34:48.511Z,19.06
2018-04-15T10:37:16.562Z,19.15
2018-04-15T10:39:44.523Z,19.21
2018-04-15T10:42:12.933Z,19.22
2018-04-15T10:44:40.815Z,19.27
2018-04-15T10:47:09.967Z,19.28
2018-04-15T10:49:39.146Z,19.20
2018-04-15T10:52:09.937Z,18.92
2018-04-15T10:54:38.403Z,18.93
2018-04-15T10:57:06.036Z,19.00
2018-04-15T10:59:34.228Z,19.14
2018-04-15T11:02:02.250Z,19.25
2018-04-15T11:04:30.082Z,19.25
2018-04-15T11:06:57.874Z,19.04
2018-04-15T11:09:27.179Z,18.48
2018-04-15T11:11:56.050Z,18.58
2018-04-15T11:14:24.639Z,18.76
2018-04-15T11:16:52.218Z,18.67
2018-04-15T11:19:20.410Z,18.24
2018-04-15T11:21:49.152Z,18.19
2018-04-15T11:24:18.007Z,18.35
2018-04-15T11:26:47.702Z,18.33
2018-04-15T11:29:16.388Z,18.42
2018-04-15T11:31:45.212Z,18.44
2018-04-15T11:34:13.450Z,18.57
2018-04-15T11:36:42.008Z,18.14
2018-04-15T11:39:10.514Z,17.98
2018-04-15T11:41:38.452Z,18.20
2018-04-15T11:44:06.271Z,18.31
2018-04-15T11:46:34.262Z,18.41
2018-04-15T11:49:02.155Z,18.38
2018-04-15T11:51:30.180Z,18.40
2018-04-15T11:53:57.718Z,18.56
2018-04-15T11:56:25.366Z,18.80
2018-04-15T11:58:52.930Z,18.74
2018-04-15T12:01:20.686Z,18.93
2018-04-15T12:03:49.469Z,19.19
2018-04-15T12:06:17.423Z,19.41
2018-04-15T12:08:45.043Z,19.64
2018-04-15T12:11:12.650Z,19.74
2018-04-15T12:13:40.281Z,19.40
2018-04-15T12:16:08.225Z,19.44
2018-04-15T12:18:36.165Z,19.65
2018-04-15T12:21:04.431Z,19.82
2018-04-15T12:23:32.008Z,20.02
2018-04-15T12:25:59.563Z,20.16
2018-04-15T12:28:27.667Z,20.27
2018-04-15T12:30:56.274Z,20.26
2018-04-15T12:33:24.838Z,20.30
2018-04-15T12:35:52.479Z,20.27
2018-04-15T12:38:20.111Z,20.39
2018-04-15T12:40:47.699Z,20.37
2018-04-15T12:43:15.315Z,20.37
2018-04-15T12:45:43.230Z,20.36
2018-04-15T12:48:11.272Z,20.29
2018-04-15T12:50:40.640Z,20.32
2018-04-15T12:53:08.547Z,20.22
2018-04-15T12:55:36.737Z,20.12
2018-04-15T12:58:04.838Z,19.97
2018-04-15T13:00:33.477Z,19.88
2018-04-15T13:03:01.650Z,19.81
2018-04-15T13:05:29.768Z,19.86
2018-04-15T13:07:57.346Z,19.87
2018-04-15T13:10:26.095Z,19.77
2018-04-15T13:12:54.753Z,19.82
2018-04-15T13:15:22.336Z,19.69
2018-04-15T13:17:50.498Z,19.70
2018-04-15T13:20:20.186Z,19.71
2018-04-15T13:22:49.418Z,19.68
2018-04-15T13:25:16.974Z,19.60
2018-04-15T13:27:45.057Z,19.54
2018-04-15T13:30:13.280Z,19.24
2018-04-15T13:32:41.767Z,19.13
2018-04-15T13:35:09.367Z,19.22
2018-04-15T13:37:37.928Z,19.14
2018-04-15T13:40:05.491Z,19.21
2018-04-15T13:42:33.306Z,19.22
2018-04-15T13:45:01.267Z,19.17
2018-04-15T13:47:29.464Z,19.15
2018-04-15T13:49:57.967Z,19.13
2018-04-15T13:52:25.527Z,19.17
2018-04-15T13:54:54.080Z,19.18
2018-04-15T13:57:21.704Z,19.28
2018-04-15T13:59:49.746Z,19.19
2018-04-15T14:02:17.833Z,19.05
2018-04-15T14:04:45.455Z,19.10
2018-04-15T14:07:13.894Z,19.16
2018-04-15T14:09:41.475Z,19.26
2018-04-15T14:12:09.035Z,19.37
2018-04-15T14:14:37.142Z,19.33
2018-04-15T14:17:04.699Z,19.16
2018-04-15T14:19:32.264Z,19.10
2018-04-15T14:21:59.922Z,19.15
2018-04-15T14:24:27.491Z,19.07
2018-04-15T14:26:55.056Z,19.08
2018-04-15T14:29:23.362Z,19.02
2018-04-15T14:31:51.824Z,19.13
2018-04-15T14:34:19.455Z,19.12
2018-04-15T14:36:47.355Z,19.14
2018-04-15T14:39:14.911Z,19.10
2018-04-15T14:41:43.037Z,19.23
2018-04-15T14:44:10.655Z,19.25
2018-04-15T14:46:38.744Z,19.34
2018-04-15T14:49:07.129Z,19.41
2018-04-15T14:51:35.598Z,19.49
2018-04-15T14:54:04.036Z,19.58
2018-04-15T14:56:32.003Z,19.68
2018-04-15T14:59:01.555Z,19.78
2018-04-15T15:01:29.182Z,19.73
2018-04-15T15:03:57.580Z,19.74
2018-04-15T15:06:25.143Z,19.78
2018-04-15T15:08:52.718Z,19.81
2018-04-15T15:11:20.647Z,19.83
2018-04-15T15:13:48.951Z,19.75
2018-04-15T15:16:16.598Z,19.83
2018-04-15T15:18:44.159Z,19.87
2018-04-15T15:21:11.847Z,19.88
2018-04-15T15:23:39.407Z,19.98
2018-04-15T15:26:07.227Z,20.00
2018-04-15T15:28:35.464Z,19.86
2018-04-15T15:31:03.025Z,19.96
2018-04-15T15:33:31.419Z,19.97
2018-04-15T15:35:58.983Z,20.04
2018-04-15T15:38:26.595Z,19.94
2018-04-15T15:40:56.419Z,19.92
2018-04-15T15:43:24.064Z,19.94
2018-04-15T15:45:51.631Z,19.68
2018-04-15T15:48:19.745Z,19.61
2018-04-15T15:50:47.303Z,19.50
2018-04-15T15:53:16.183Z,19.26
2018-04-15T15:55:43.783Z,19.16
2018-04-15T15:58:12.146Z,19.16
2018-04-15T16:00:39.755Z,19.32
2018-04-15T16:03:08.126Z,19.37
2018-04-15T16:05:35.683Z,19.35
2018-04-15T16:08:04.411Z,19.22
2018-04-15T16:10:31.971Z,19.15
2018-04-15T16:12:59.538Z,19.09
2018-04-15T16:15:27.472Z,19.12
2018-04-15T16:17:56.079Z,19.01
2018-04-15T16:20:23.706Z,18.78
2018-04-15T16:22:51.583Z,18.50
2018-04-15T16:25:19.142Z,18.39
2018-04-15T16:27:48.056Z,18.37
2018-04-15T16:30:16.861Z,18.15
2018-04-15T16:32:44.970Z,18.01
2018-04-15T16:35:12.660Z,17.86
2018-04-15T16:37:40.959Z,17.75
2018-04-15T16:40:08.584Z,17.63
2018-04-15T16:42:37.188Z,17.59
2018-04-15T16:45:04.755Z,17.56
2018-04-15T16:47:32.439Z,17.53
2018-04-15T16:50:01.087Z,17.64
2018-04-15T16:52:29.617Z,17.75
2018-04-15T16:54:57.372Z,17.91
2018-04-15T16:57:24.986Z,17.93
2018-04-15T16:59:53.049Z,18.01
2018-04-15T17:02:21.118Z,18.14
2018-04-15T17:04:48.716Z,18.21
2018-04-15T17:07:16.271Z,18.17
2018-04-15T17:09:43.878Z,18.12
2018-04-15T17:12:13.102Z,18.23
2018-04-15T17:14:40.715Z,18.33
2018-04-15T17:17:08.274Z,18.50
2018-04-15T17:19:36.653Z,18.60
2018-04-15T17:22:05.927Z,18.66
2018-04-15T17:24:33.882Z,18.83
2018-04-15T17:27:01.950Z,18.95
2018-04-15T17:29:29.755Z,18.96
2018-04-15T17:31:57.369Z,18.98
2018-04-15T17:34:24.933Z,19.03
2018-04-15T17:36:53.123Z,19.03
2018-04-15T17:39:23.348Z,18.98
2018-04-15T17:41:51.708Z,18.81
2018-04-15T17:44:20.090Z,18.75
2018-04-15T17:46:48.675Z,18.59
2018-04-15T17:49:16.231Z,18.63
2018-04-15T17:51:43.828Z,18.67
2018-04-15T17:54:12.406Z,18.68
2018-04-15T17:56:41.213Z,18.63
2018-04-15T17:59:08.790Z,18.47
2018-04-15T18:01:36.720Z,18.47
2018-04-15T18:04:04.836Z,18.66
2018-04-15T18:06:32.647Z,18.75
2018-04-15T18:09:01.694Z,18.86
2018-04-15T18:11:29.683Z,18.95
2018-04-15T18:13:57.418Z,18.89
2018-04-15T18:16:26.084Z,18.85
2018-04-15T18:18:53.707Z,18.72
2018-04-15T18:21:22.584Z,18.61
2018-04-15T18:23:50.713Z,18.71
2018-04-15T18:26:18.408Z,18.80
2018-04-15T18:28:46.289Z,18.69
2018-04-15T18:31:14.371Z,18.54
2018-04-15T18:33:42.431Z,18.46
2018-04-15T18:36:10.266Z,18.34
2018-04-15T18:38:38.218Z,18.33
2018-04-15T18:41:06.379Z,18.37
2018-04-15T18:43:33.980Z,18.28
2018-04-15T18:46:01.592Z,18.37
2018-04-15T18:48:30.583Z,18.45
2018-04-15T18:50:59.900Z,18.50
2018-04-15T18:53:29.827Z,18.53
2018-04-15T18:55:58.843Z,18.45
2018-04-15T18:58:28.272Z,18.40
2018-04-15T19:00:56.161Z,18.39
2018-04-15T19:03:23.788Z,18.16
2018-04-15T19:05:51.408Z,17.87
2018-04-15T19:08:19.224Z,17.99
2018-04-15T19:10:47.972Z,17.89
2018-04-15T19:13:16.330Z,17.91
2018-04-15T19:15:44.766Z,18.12
2018-04-15T19:18:15.124Z,17.98
2018-04-15T19:20:42.847Z,18.09
2018-04-15T19:23:10.935Z,18.15
2018-04-15T19:25:39.183Z,18.19
2018-04-15T19:28:07.231Z,17.97
2018-04-15T19:30:35.278Z,17.76
2018-04-15T19:33:03.247Z,17.96
2018-04-15T19:35:32.040Z,18.14
2018-04-15T19:38:00.581Z,18.22
2018-04-15T19:40:29.012Z,18.19
2018-04-15T19:42:58.466Z,18.24
2018-04-15T19:45:28.378Z,18.32
2018-04-15T19:47:56.007Z,18.22
2018-04-15T19:50:24.008Z,18.24
2018-04-15T19:52:52.244Z,18.35
2018-04-15T19:55:19.883Z,18.21
2018-04-15T19:57:47.444Z,17.58
2018-04-15T20:00:15.558Z,17.41
2018-04-15T20:02:43.441Z,17.55
2018-04-15T20:05:11.804Z,17.73
2018-04-15T20:07:39.375Z,17.87
2018-04-15T20:10:06.941Z,17.38
2018-04-15T20:12:34.994Z,17.27
2018-04-15T20:15:03.031Z,17.31
2018-04-15T20:17:31.556Z,17.51
2018-04-15T20:19:59.631Z,17.63
2018-04-15T20:22:27.998Z,17.63
2018-04-15T20:24:55.963Z,17.59
2018-04-15T20:27:23.867Z,17.71
2018-04-15T20:29:51.427Z,17.82
2018-04-15T20:32:19.003Z,17.86
2018-04-15T20:34:47.276Z,17.95
2018-04-15T20:37:14.839Z,17.83
2018-04-15T20:39:43.590Z,17.80
2018-04-15T20:42:11.332Z,17.89
2018-04-15T20:44:39.616Z,17.68
2018-04-15T20:47:07.839Z,17.37
2018-04-15T20:49:36.020Z,17.33
2018-04-15T20:52:03.591Z,17.45
2018-04-15T20:54:31.190Z,17.58
2018-04-15T20:56:58.978Z,17.29
2018-04-15T20:59:26.960Z,17.27
2018-04-15T21:01:55.166Z,17.33
2018-04-15T21:04:24.991Z,17.53
2018-04-15T21:06:52.574Z,17.59
2018-04-15T21:09:20.195Z,17.60
2018-04-15T21:11:48.055Z,17.56
2018-04-15T21:14:15.627Z,17.64
2018-04-15T21:16:44.392Z,17.76
2018-04-15T21:19:12.007Z,17.81
2018-04-15T21:21:39.662Z,17.76
2018-04-15T21:24:07.399Z,17.59
2018-04-15T21:26:34.958Z,17.67
2018-04-15T21:29:03.522Z,17.45
2018-04-15T21:31:31.636Z,17.52
2018-04-15T21:33:59.214Z,17.63
2018-04-15T21:36:28.268Z,17.71
2018-04-15T21:38:55.848Z,17.75
2018-04-15T21:41:23.979Z,17.72
2018-04-15T21:43:51.590Z,17.76
2018-04-15T21:46:19.421Z,17.84
2018-04-15T21:48:47.062Z,17.86
2018-04-15T21:51:15.366Z,17.20
2018-04-15T21:53:42.978Z,16.54
2018-04-15T21:56:11.074Z,16.60
2018-04-15T21:58:39.143Z,16.85
2018-04-15T22:01:07.190Z,17.07
2018-04-15T22:03:34.822Z,17.05
2018-04-15T22:06:02.368Z,17.14
2018-04-15T22:08:30.761Z,17.28
2018-04-15T22:10:58.593Z,17.35
2018-04-15T22:13:26.597Z,16.65
2018-04-15T22:15:54.201Z,16.55
2018-04-15T22:18:21.892Z,16.40
2018-04-15T22:20:49.504Z,16.17
2018-04-15T22:23:17.650Z,16.27
2018-04-15T22:25:45.274Z,16.59
2018-04-15T22:28:12.835Z,16.87
2018-04-15T22:30:41.349Z,16.97
2018-04-15T22:33:09.485Z,16.94
2018-04-15T22:35:37.551Z,17.00
2018-04-15T22:38:05.495Z,17.08
2018-04-15T22:40:33.334Z,17.11
2018-04-15T22:43:00.898Z,17.12
2018-04-15T22:45:28.504Z,17.15
2018-04-15T22:48:01.584Z,17.17
2018-04-15T22:50:34.651Z,16.85
2018-04-15T22:53:02.269Z,16.88
2018-04-15T22:55:30.251Z,17.01
2018-04-15T22:57:57.901Z,17.06
2018-04-15T23:00:25.462Z,17.10
2018-04-15T23:02:54.552Z,17.19
2018-04-15T23:05:22.735Z,17.09
2018-04-15T23:07:50.295Z,16.88
2018-04-15T23:10:18.546Z,16.94
2018-04-15T23:12:46.614Z,17.00
2018-04-15T23:15:14.704Z,17.09
2018-04-15T23:17:42.342Z,16.99
2018-04-15T23:20:09.933Z,16.78
2018-04-15T23:22:37.533Z,16.83
2018-04-15T23:25:05.131Z,16.88
2018-04-15T23:27:32.695Z,16.79
2018-04-15T23:30:00.512Z,16.79
2018-04-15T23:32:28.861Z,16.86
2018-04-15T23:34:56.681Z,16.98
2018-04-15T23:37:24.278Z,16.92
2018-04-15T23:39:51.902Z,16.92
2018-04-15T23:42:20.104Z,16.92
2018-04-15T23:44:47.669Z,16.93
2018-04-15T23:47:15.234Z,16.97
2018-04-15T23:49:43.103Z,17.02
2018-04-15T23:52:11.278Z,17.08
2018-04-15T23:54:38.835Z,17.15
2018-04-15T23:57:06.457Z,17.20
2018-04-15T23:59:34.041Z,17.18
